Bellflower, California
Current Conditions -  °F | °C
As of 9:53 AM on Thursday 30 Oct 2014 (Local Time) from KLGB Reporting Station
Clear Clear  
Wind Chill: 72°   Ceiling: Unl
Heat Index: 72°   Visibility: 9mi
Dew Point: 55°   Wind: 3mph
Humidity: 55%   Direction: 340°NNW
Pressure: 29.99"   Gusts: NA
Location:  33.88°N, 118.12°W
Report Text: KLGB 301653Z 34003KT 9SM CLR 22/13 A2999 RMK AO2 SLP156 T02220128
Loading
Personal Weather Stations






























Interactive Weather Map
Tropical Storm Tracking
New forecast layout! Learn more

10-Day Weather Forecast

Advertisements
Track Severe Weather on mobile